Wichita, KS (67206)

7:37 AM CST on November 27, 2014 (GMT -0600)
Central and Rock | Change Station
CLOSE
Current Station
Personal Weather Station
Location: Wichita, KS
Elevation: 1375 ft
Nearby Weather Stations

Elev 1375 ft 37.69 °N, 97.24 °W | Updated 15 seconds ago

Clear
Clear
22.3 °F
Feels Like 22 °F
N
0.0
Wind Variable Wind from East
Gusts 0.0 mph

Today
High -- | Low -- °F
--% Chance of Precip.
Yesterday
High -- | Low -- °F
Precip. -- in
7:21 AM 5:11 PM
Waxing Crescent, 29% visible
Pressure 30.54 in
Visibility 10.0 miles
Clouds Clear
Windchill 22 °F
Dew Point 17 °F
Humidity 80%
Rainfall 0.00 in
Snow Depth Not available.
UV 0 out of 12
Pollen .10 out of 12
Air Quality Not available.
Flu Activity Not available.
METAR KAAO 271254Z AUTO 36004KT 10SM CLR M06/M09 A3049 RMK AO2 SLP341 T10611089

More Conditions Fewer Conditions

Pressure 30.54 in
Visibility 10.0 miles
Clouds Clear
Windchill 22 °F
Dew Point 17 °F
Humidity 80%
Rainfall 0.00 in
Snow Depth Not available.
UV 0 out of 12
Pollen .10 out of 12
Air Quality Not available.
Flu Activity Not available.
METAR KAAO 271254Z AUTO 36004KT 10SM CLR M06/M09 A3049 RMK AO2 SLP341 T10611089

More Conditions Fewer Conditions

10-Day Weather Forecast

Almanac

Astronomy

Nov. 27, 2014 Rise Set
Actual Time
Civil Twilight
Nautical Twilight
Astronomical Twilight
Moon
Length of Visible Light
Length of Day
Tomorrow will be .
, % of the Moon is Illuminated

Today's Extremes

State Highs State Lows

Community

WunderPhotos

Upload Photos

1,773,998 photos uploaded!

WunderBlogs® & News

Nearby

Air Quality

  Air Quality AQ Index Pollutant
Not available.

Snow Depth

Station Depth Elevation

Earthquake Activity

City Distance Mag. Time & Date
Minimum magnitude displayed is 2.5.

Coastal Water Temperatures

Place Temperature

Nearby Weather Stations